createdAt,value
2024-05-09T00:02:25.936Z,2.22
2024-05-09T00:07:27.980Z,1.95
2024-05-09T00:12:30.074Z,2.92
2024-05-09T00:17:32.303Z,2.92
2024-05-09T00:22:34.492Z,2.10
2024-05-09T00:27:36.540Z,2.00
2024-05-09T00:32:38.710Z,2.17
2024-05-09T00:37:40.812Z,1.88
2024-05-09T00:42:42.760Z,1.83
2024-05-09T00:47:46.264Z,2.30
2024-05-09T00:52:49.328Z,2.10
2024-05-09T00:57:51.779Z,2.13
2024-05-09T01:02:53.820Z,2.10
2024-05-09T01:07:55.981Z,2.47
2024-05-09T01:12:57.992Z,2.42
2024-05-09T01:18:04.335Z,2.17
2024-05-09T01:23:07.280Z,2.33
2024-05-09T01:28:09.299Z,3.05
2024-05-09T01:33:12.510Z,2.63
2024-05-09T01:38:17.602Z,4.55
2024-05-09T01:43:19.735Z,2.78
2024-05-09T01:48:21.894Z,2.47
2024-05-09T01:53:24.023Z,2.92
2024-05-09T01:58:26.016Z,2.47
2024-05-09T02:03:28.135Z,2.08
2024-05-09T02:08:30.279Z,2.67
2024-05-09T02:13:32.320Z,5.25
2024-05-09T02:18:34.374Z,2.80
2024-05-09T02:23:36.449Z,3.15
2024-05-09T02:28:38.405Z,3.45
2024-05-09T02:33:40.840Z,3.65
2024-05-09T02:38:43.125Z,6.85
2024-05-09T02:43:45.151Z,3.13
2024-05-09T02:48:47.328Z,4.38
2024-05-09T02:53:49.372Z,4.18
2024-05-09T02:58:51.398Z,3.63
2024-05-09T03:03:53.500Z,3.60
2024-05-09T03:08:55.641Z,4.03
2024-05-09T03:13:57.780Z,2.83
2024-05-09T03:18:59.930Z,2.40
2024-05-09T03:24:02.022Z,2.88
2024-05-09T03:29:04.048Z,2.72
2024-05-09T03:34:06.179Z,2.75
2024-05-09T03:39:10.058Z,2.10
2024-05-09T03:44:12.267Z,2.80
2024-05-09T03:49:14.533Z,3.25
2024-05-09T03:54:16.573Z,2.83
2024-05-09T03:59:18.950Z,2.80
2024-05-09T04:04:20.958Z,3.55
2024-05-09T04:09:23.063Z,2.60
2024-05-09T04:14:25.074Z,2.78
2024-05-09T04:19:27.274Z,2.72
2024-05-09T04:24:29.613Z,2.60
2024-05-09T04:29:32.276Z,3.30
2024-05-09T04:34:36.258Z,2.42
2024-05-09T04:39:38.226Z,3.55
2024-05-09T04:44:40.196Z,3.60
2024-05-09T04:49:42.633Z,2.92
2024-05-09T04:54:44.992Z,3.20
2024-05-09T04:59:46.965Z,3.70
2024-05-09T05:04:50.143Z,3.83
2024-05-09T05:09:53.224Z,3.80
2024-05-09T05:14:55.184Z,3.35
2024-05-09T05:19:57.830Z,4.18
2024-05-09T05:24:59.867Z,4.00
2024-05-09T05:30:01.853Z,3.80
2024-05-09T05:35:04.091Z,3.72
2024-05-09T05:40:09.427Z,4.38
2024-05-09T05:45:13.918Z,3.83
2024-05-09T05:50:24.548Z,4.97
2024-05-09T05:55:33.938Z,4.18
2024-05-09T06:00:39.043Z,3.17
2024-05-09T06:05:46.929Z,3.55
2024-05-09T06:10:49.171Z,3.25
2024-05-09T06:15:51.295Z,4.97
2024-05-09T06:20:53.348Z,4.43
2024-05-09T06:25:55.440Z,4.80
2024-05-09T06:30:57.491Z,4.50
2024-05-09T06:35:59.752Z,4.50
2024-05-09T06:41:01.823Z,4.85
2024-05-09T06:46:04.002Z,6.28
2024-05-09T06:51:06.468Z,6.35
2024-05-09T06:56:08.527Z,7.03
2024-05-09T07:01:10.635Z,6.93
2024-05-09T07:06:12.714Z,7.32
2024-05-09T07:11:15.120Z,5.93
2024-05-09T07:16:17.288Z,6.28
2024-05-09T07:21:19.333Z,5.85
2024-05-09T07:26:21.505Z,6.10
2024-05-09T07:31:23.613Z,6.30
2024-05-09T07:36:25.607Z,7.55
2024-05-09T07:41:27.661Z,7.45
2024-05-09T07:47:36.938Z,8.73
2024-05-09T07:53:20.912Z,8.98
2024-05-09T07:57:13.917Z,8.88
2024-05-09T08:02:16.078Z,11.15
2024-05-09T08:07:19.166Z,10.77
2024-05-09T08:12:21.238Z,12.20
2024-05-09T08:17:23.306Z,12.25
2024-05-09T08:22:25.459Z,13.30
2024-05-09T08:27:27.688Z,13.27
2024-05-09T08:32:32.381Z,13.35
2024-05-09T08:37:38.732Z,14.20
2024-05-09T08:42:51.217Z,14.10
2024-05-09T08:47:54.739Z,14.35
2024-05-09T08:52:56.906Z,14.75
2024-05-09T08:58:01.118Z,14.75
2024-05-09T09:03:04.519Z,15.00
2024-05-09T09:08:08.634Z,14.45
2024-05-09T09:13:11.359Z,14.77
2024-05-09T09:18:15.235Z,14.48
2024-05-09T09:23:17.327Z,15.18
2024-05-09T09:28:23.202Z,15.02
2024-05-09T09:33:26.550Z,15.02
2024-05-09T09:38:31.524Z,14.52
2024-05-09T09:43:33.868Z,15.27
2024-05-09T09:48:36.620Z,14.70
2024-05-09T09:53:38.891Z,14.45
2024-05-09T09:58:43.851Z,14.90
2024-05-09T10:03:46.162Z,15.13
2024-05-09T10:08:49.005Z,14.82
2024-05-09T10:13:51.860Z,15.50
2024-05-09T10:18:53.994Z,14.98
2024-05-09T10:24:03.813Z,16.77
2024-05-09T10:29:16.809Z,15.73
2024-05-09T10:34:23.722Z,15.38
2024-05-09T10:39:26.297Z,15.73
2024-05-09T10:44:28.280Z,15.60
2024-05-09T10:49:31.371Z,14.98
2024-05-09T10:54:37.513Z,15.02
2024-05-09T10:59:39.880Z,15.90
2024-05-09T11:04:42.446Z,15.50
2024-05-09T11:09:44.792Z,15.52
2024-05-09T11:14:53.895Z,15.38
2024-05-09T11:19:56.000Z,15.65
2024-05-09T11:24:58.161Z,15.35
2024-05-09T11:30:01.368Z,15.20
2024-05-09T11:35:03.447Z,14.90
2024-05-09T11:40:11.436Z,14.98
2024-05-09T11:45:15.648Z,14.68
2024-05-09T11:50:26.795Z,14.57
2024-05-09T11:55:36.364Z,14.75
2024-05-09T12:00:38.558Z,14.82
2024-05-09T12:05:40.974Z,14.40
2024-05-09T12:10:43.450Z,15.10
2024-05-09T12:15:45.653Z,14.80
2024-05-09T12:20:47.729Z,14.27
2024-05-09T12:25:50.093Z,14.65
2024-05-09T12:30:52.102Z,15.20
2024-05-09T12:35:54.507Z,14.80
2024-05-09T12:40:56.606Z,16.00
2024-05-09T12:45:58.794Z,15.68
2024-05-09T12:51:00.803Z,14.85
2024-05-09T12:56:04.402Z,15.18
2024-05-09T13:01:07.509Z,14.65
2024-05-09T13:06:09.941Z,15.73
2024-05-09T13:11:12.096Z,16.00
2024-05-09T13:16:14.197Z,16.02
2024-05-09T13:21:16.281Z,15.73
2024-05-09T13:26:18.386Z,15.98
2024-05-09T13:31:20.713Z,16.25
2024-05-09T13:36:23.081Z,16.10
2024-05-09T13:41:25.180Z,15.60
2024-05-09T13:46:27.378Z,14.88
2024-05-09T13:51:29.443Z,15.02
2024-05-09T13:56:31.490Z,14.95
2024-05-09T14:01:33.482Z,16.10
2024-05-09T14:06:36.586Z,15.88
2024-05-09T14:11:38.647Z,15.45
2024-05-09T14:16:42.222Z,14.90
2024-05-09T14:21:44.340Z,15.07
2024-05-09T14:26:46.390Z,15.40
2024-05-09T14:31:48.452Z,14.80
2024-05-09T14:36:50.582Z,14.90
2024-05-09T14:41:52.602Z,15.50
2024-05-09T14:46:54.691Z,15.30
2024-05-09T14:51:56.776Z,15.80
2024-05-09T14:56:58.889Z,15.50
2024-05-09T15:02:01.027Z,15.90
2024-05-09T15:07:03.319Z,15.80
2024-05-09T15:12:05.614Z,15.20
2024-05-09T15:17:07.582Z,15.05
2024-05-09T15:22:11.787Z,15.30
2024-05-09T15:27:14.079Z,14.77
2024-05-09T15:32:16.161Z,15.10
2024-05-09T15:37:18.438Z,15.32
2024-05-09T15:42:20.500Z,15.68
2024-05-09T15:47:22.554Z,15.27
2024-05-09T15:52:24.558Z,16.52
2024-05-09T15:57:26.576Z,16.95
2024-05-09T16:02:28.670Z,17.10
2024-05-09T16:07:30.961Z,17.05
2024-05-09T16:12:32.995Z,16.98
2024-05-09T16:17:35.519Z,17.13
2024-05-09T16:22:37.732Z,16.35
2024-05-09T16:27:39.761Z,16.77
2024-05-09T16:32:44.124Z,17.08
2024-05-09T16:37:46.212Z,17.15
2024-05-09T16:42:48.253Z,16.90
2024-05-09T16:47:50.494Z,17.40
2024-05-09T16:52:52.600Z,17.33
2024-05-09T16:57:55.547Z,16.88
2024-05-09T17:02:57.702Z,17.30
2024-05-09T17:07:59.887Z,17.73
2024-05-09T17:13:03.256Z,17.50
2024-05-09T17:18:07.623Z,17.63
2024-05-09T17:23:13.799Z,17.17
2024-05-09T17:28:16.625Z,17.40
2024-05-09T17:33:18.819Z,17.65
2024-05-09T17:38:23.433Z,16.85
2024-05-09T17:43:25.615Z,16.92
2024-05-09T17:48:27.870Z,17.38
2024-05-09T17:53:29.917Z,16.50
2024-05-09T17:58:32.067Z,17.33
2024-05-09T18:03:34.453Z,17.30
2024-05-09T18:08:36.566Z,18.55
2024-05-09T18:13:38.525Z,17.90
2024-05-09T18:18:41.138Z,17.05
2024-05-09T18:23:43.211Z,15.38
2024-05-09T18:28:47.254Z,13.82
2024-05-09T18:33:49.453Z,12.15
2024-05-09T18:38:51.563Z,12.23
2024-05-09T18:43:54.298Z,12.90
2024-05-09T18:48:56.370Z,11.20
2024-05-09T18:53:58.397Z,10.05
2024-05-09T18:59:00.397Z,9.57
2024-05-09T19:04:02.671Z,10.00
2024-05-09T19:09:05.854Z,9.65
2024-05-09T19:14:07.945Z,9.38
2024-05-09T19:19:10.164Z,8.68
2024-05-09T19:24:12.648Z,9.90
2024-05-09T19:29:14.658Z,11.45
2024-05-09T19:34:16.842Z,11.52
2024-05-09T19:39:18.885Z,10.43
2024-05-09T19:44:20.995Z,8.65
2024-05-09T19:49:23.165Z,6.40
2024-05-09T19:54:25.308Z,6.10
2024-05-09T19:59:27.226Z,6.13
2024-05-09T20:04:29.321Z,5.20
2024-05-09T20:09:31.470Z,5.80
2024-05-09T20:14:33.537Z,5.30
2024-05-09T20:19:35.679Z,5.35
2024-05-09T20:24:37.769Z,5.38
2024-05-09T20:29:39.790Z,5.30
2024-05-09T20:34:41.738Z,3.97
2024-05-09T20:39:43.827Z,7.05
2024-05-09T20:44:45.815Z,6.72
2024-05-09T20:49:47.891Z,7.93
2024-05-09T20:54:49.973Z,5.53
2024-05-09T20:59:51.973Z,8.43
2024-05-09T21:04:54.075Z,19.48
2024-05-09T21:09:56.227Z,6.97
2024-05-09T21:14:58.382Z,6.78
2024-05-09T21:20:00.340Z,7.53
2024-05-09T21:25:02.505Z,7.13
2024-05-09T21:30:07.744Z,6.10
2024-05-09T21:35:11.868Z,5.90
2024-05-09T21:40:20.671Z,5.45
2024-05-09T21:45:26.360Z,5.55
2024-05-09T21:50:36.519Z,6.80
2024-05-09T21:55:43.157Z,4.45
2024-05-09T22:00:46.583Z,4.65
2024-05-09T22:05:48.892Z,5.28
2024-05-09T22:10:51.426Z,5.05
2024-05-09T22:15:53.666Z,4.13
2024-05-09T22:20:55.675Z,4.32
2024-05-09T22:25:57.669Z,6.97
2024-05-09T22:30:59.767Z,11.52
2024-05-09T22:36:01.750Z,3.38
2024-05-09T22:41:07.800Z,3.00
2024-05-09T22:46:09.833Z,3.50
2024-05-09T22:51:12.841Z,3.53
2024-05-09T22:56:15.035Z,2.95
2024-05-09T23:01:17.157Z,4.20
2024-05-09T23:06:19.372Z,2.95
2024-05-09T23:11:21.416Z,2.75
2024-05-09T23:16:23.503Z,2.97
2024-05-09T23:21:25.609Z,3.17
2024-05-09T23:26:27.601Z,3.20
2024-05-09T23:31:29.753Z,2.83
2024-05-09T23:36:31.881Z,4.20
2024-05-09T23:41:33.968Z,2.78
2024-05-09T23:46:36.146Z,2.92
2024-05-09T23:51:38.267Z,2.70
2024-05-09T23:56:40.306Z,2.42
